sensor_id;sensor_type;location;lat;lon;timestamp;P1;durP1;ratioP1;P2;durP2;ratioP2
30462;SDS011;17256;43.618;25.336;2023-01-04T00:00:19;24.07;;;17.70;;
30462;SDS011;17256;43.618;25.336;2023-01-04T00:12:31;21.80;;;18.67;;
30462;SDS011;17256;43.618;25.336;2023-01-04T00:24:06;28.10;;;19.30;;
30462;SDS011;17256;43.618;25.336;2023-01-04T00:28:15;26.80;;;21.13;;
30462;SDS011;17256;43.618;25.336;2023-01-04T00:32:12;25.60;;;19.10;;
30462;SDS011;17256;43.618;25.336;2023-01-04T00:40:45;25.87;;;19.40;;
30462;SDS011;17256;43.618;25.336;2023-01-04T00:45:01;31.97;;;20.23;;
30462;SDS011;17256;43.618;25.336;2023-01-04T01:08:20;26.60;;;20.07;;
30462;SDS011;17256;43.618;25.336;2023-01-04T01:16:21;25.57;;;20.00;;
30462;SDS011;17256;43.618;25.336;2023-01-04T01:27:49;18.73;;;14.90;;
30462;SDS011;17256;43.618;25.336;2023-01-04T01:39:07;23.00;;;15.63;;
30462;SDS011;17256;43.618;25.336;2023-01-04T02:12:27;29.90;;;22.20;;
30462;SDS011;17256;43.618;25.336;2023-01-04T02:16:39;27.77;;;21.10;;
30462;SDS011;17256;43.618;25.336;2023-01-04T02:20:53;26.33;;;21.03;;
30462;SDS011;17256;43.618;25.336;2023-01-04T02:44:46;28.60;;;19.83;;
30462;SDS011;17256;43.618;25.336;2023-01-04T02:48:33;24.37;;;20.23;;
30462;SDS011;17256;43.618;25.336;2023-01-04T02:52:20;25.77;;;17.27;;
30462;SDS011;17256;43.618;25.336;2023-01-04T04:50:57;47.07;;;39.67;;
30462;SDS011;17256;43.618;25.336;2023-01-04T05:24:26;33.20;;;26.57;;
30462;SDS011;17256;43.618;25.336;2023-01-04T05:30:37;34.73;;;26.70;;
30462;SDS011;17256;43.618;25.336;2023-01-04T05:33:40;40.23;;;31.33;;
30462;SDS011;17256;43.618;25.336;2023-01-04T05:36:05;42.63;;;31.70;;
30462;SDS011;17256;43.618;25.336;2023-01-04T05:38:31;52.80;;;44.40;;
30462;SDS011;17256;43.618;25.336;2023-01-04T05:40:59;62.87;;;48.10;;
30462;SDS011;17256;43.618;25.336;2023-01-04T05:43:25;51.43;;;44.30;;
30462;SDS011;17256;43.618;25.336;2023-01-04T05:45:52;51.07;;;39.53;;
30462;SDS011;17256;43.618;25.336;2023-01-04T05:48:20;44.07;;;36.63;;
30462;SDS011;17256;43.618;25.336;2023-01-04T05:50:47;50.93;;;45.30;;
30462;SDS011;17256;43.618;25.336;2023-01-04T05:53:14;34.43;;;28.77;;
30462;SDS011;17256;43.618;25.336;2023-01-04T05:55:44;24.70;;;21.30;;
30462;SDS011;17256;43.618;25.336;2023-01-04T05:58:11;29.30;;;23.07;;
30462;SDS011;17256;43.618;25.336;2023-01-04T06:00:37;28.73;;;24.10;;
30462;SDS011;17256;43.618;25.336;2023-01-04T06:03:03;28.23;;;24.00;;
30462;SDS011;17256;43.618;25.336;2023-01-04T06:05:29;29.77;;;26.60;;
30462;SDS011;17256;43.618;25.336;2023-01-04T06:07:54;34.23;;;27.57;;
30462;SDS011;17256;43.618;25.336;2023-01-04T06:10:20;38.10;;;29.17;;
30462;SDS011;17256;43.618;25.336;2023-01-04T06:12:46;30.97;;;27.30;;
30462;SDS011;17256;43.618;25.336;2023-01-04T06:15:13;41.10;;;33.43;;
30462;SDS011;17256;43.618;25.336;2023-01-04T06:17:39;42.03;;;32.83;;
30462;SDS011;17256;43.618;25.336;2023-01-04T06:20:05;44.00;;;31.30;;
30462;SDS011;17256;43.618;25.336;2023-01-04T06:22:33;33.47;;;28.20;;
30462;SDS011;17256;43.618;25.336;2023-01-04T06:28:41;27.97;;;24.93;;
30462;SDS011;17256;43.618;25.336;2023-01-04T06:31:07;30.17;;;25.87;;
30462;SDS011;17256;43.618;25.336;2023-01-04T06:33:34;37.03;;;29.17;;
30462;SDS011;17256;43.618;25.336;2023-01-04T06:35:59;50.43;;;40.37;;
30462;SDS011;17256;43.618;25.336;2023-01-04T06:38:26;49.50;;;40.70;;
30462;SDS011;17256;43.618;25.336;2023-01-04T06:50:29;45.07;;;35.10;;
30462;SDS011;17256;43.618;25.336;2023-01-04T06:52:55;37.47;;;28.93;;
30462;SDS011;17256;43.618;25.336;2023-01-04T06:55:20;39.70;;;35.13;;
30462;SDS011;17256;43.618;25.336;2023-01-04T06:57:46;43.30;;;38.80;;
30462;SDS011;17256;43.618;25.336;2023-01-04T07:00:12;44.57;;;37.17;;
30462;SDS011;17256;43.618;25.336;2023-01-04T07:02:38;36.63;;;31.13;;
30462;SDS011;17256;43.618;25.336;2023-01-04T07:05:04;42.67;;;36.13;;
30462;SDS011;17256;43.618;25.336;2023-01-04T07:07:30;49.67;;;43.80;;
30462;SDS011;17256;43.618;25.336;2023-01-04T07:10:01;81.73;;;55.10;;
30462;SDS011;17256;43.618;25.336;2023-01-04T07:12:30;54.27;;;41.13;;
30462;SDS011;17256;43.618;25.336;2023-01-04T07:14:57;62.37;;;48.67;;
30462;SDS011;17256;43.618;25.336;2023-01-04T07:17:23;69.77;;;51.67;;
30462;SDS011;17256;43.618;25.336;2023-01-04T07:19:52;64.07;;;48.50;;
30462;SDS011;17256;43.618;25.336;2023-01-04T07:23:15;55.90;;;40.00;;
30462;SDS011;17256;43.618;25.336;2023-01-04T07:25:52;49.67;;;38.97;;
30462;SDS011;17256;43.618;25.336;2023-01-04T07:28:26;51.93;;;38.57;;
30462;SDS011;17256;43.618;25.336;2023-01-04T07:32:11;43.10;;;32.40;;
30462;SDS011;17256;43.618;25.336;2023-01-04T07:35:47;39.40;;;29.60;;
30462;SDS011;17256;43.618;25.336;2023-01-04T07:43:42;35.97;;;28.87;;
30462;SDS011;17256;43.618;25.336;2023-01-04T07:58:30;44.53;;;27.63;;
30462;SDS011;17256;43.618;25.336;2023-01-04T08:01:52;51.20;;;29.77;;
30462;SDS011;17256;43.618;25.336;2023-01-04T08:05:36;48.63;;;31.23;;
30462;SDS011;17256;43.618;25.336;2023-01-04T08:09:19;55.77;;;34.13;;
30462;SDS011;17256;43.618;25.336;2023-01-04T08:12:43;56.37;;;28.77;;
30462;SDS011;17256;43.618;25.336;2023-01-04T08:16:02;55.30;;;32.17;;
30462;SDS011;17256;43.618;25.336;2023-01-04T08:19:58;62.03;;;33.93;;
30462;SDS011;17256;43.618;25.336;2023-01-04T08:27:37;60.97;;;36.70;;
30462;SDS011;17256;43.618;25.336;2023-01-04T08:31:38;57.03;;;32.67;;
30462;SDS011;17256;43.618;25.336;2023-01-04T08:39:04;64.50;;;37.87;;
30462;SDS011;17256;43.618;25.336;2023-01-04T09:07:48;63.60;;;40.53;;
30462;SDS011;17256;43.618;25.336;2023-01-04T09:10:16;77.90;;;39.17;;
30462;SDS011;17256;43.618;25.336;2023-01-04T09:12:42;55.77;;;35.63;;
30462;SDS011;17256;43.618;25.336;2023-01-04T09:15:10;53.67;;;33.37;;
30462;SDS011;17256;43.618;25.336;2023-01-04T09:17:38;45.97;;;31.27;;
30462;SDS011;17256;43.618;25.336;2023-01-04T09:20:04;48.07;;;32.20;;
30462;SDS011;17256;43.618;25.336;2023-01-04T09:22:32;58.23;;;31.13;;
30462;SDS011;17256;43.618;25.336;2023-01-04T09:24:58;55.33;;;32.50;;
30462;SDS011;17256;43.618;25.336;2023-01-04T09:27:26;52.00;;;31.47;;
30462;SDS011;17256;43.618;25.336;2023-01-04T09:29:53;54.90;;;31.23;;
30462;SDS011;17256;43.618;25.336;2023-01-04T09:32:23;56.50;;;31.83;;
30462;SDS011;17256;43.618;25.336;2023-01-04T09:35:06;46.10;;;29.07;;
30462;SDS011;17256;43.618;25.336;2023-01-04T09:37:33;45.00;;;29.27;;
30462;SDS011;17256;43.618;25.336;2023-01-04T09:40:02;48.27;;;30.77;;
30462;SDS011;17256;43.618;25.336;2023-01-04T09:42:33;47.77;;;29.10;;
30462;SDS011;17256;43.618;25.336;2023-01-04T09:45:16;61.17;;;35.60;;
30462;SDS011;17256;43.618;25.336;2023-01-04T09:47:50;54.43;;;32.50;;
30462;SDS011;17256;43.618;25.336;2023-01-04T09:50:53;48.70;;;29.90;;
30462;SDS011;17256;43.618;25.336;2023-01-04T09:53:26;46.00;;;31.97;;
30462;SDS011;17256;43.618;25.336;2023-01-04T09:58:53;60.20;;;36.03;;
30462;SDS011;17256;43.618;25.336;2023-01-04T10:05:43;63.93;;;41.33;;
30462;SDS011;17256;43.618;25.336;2023-01-04T10:52:47;60.23;;;40.57;;
30462;SDS011;17256;43.618;25.336;2023-01-04T11:08:36;59.27;;;34.10;;
30462;SDS011;17256;43.618;25.336;2023-01-04T11:17:12;56.70;;;33.03;;
30462;SDS011;17256;43.618;25.336;2023-01-04T11:25:16;60.70;;;35.57;;
30462;SDS011;17256;43.618;25.336;2023-01-04T11:36:46;70.20;;;38.03;;
30462;SDS011;17256;43.618;25.336;2023-01-04T11:44:32;76.53;;;39.40;;
30462;SDS011;17256;43.618;25.336;2023-01-04T11:51:57;65.57;;;35.87;;
30462;SDS011;17256;43.618;25.336;2023-01-04T11:54:23;72.07;;;39.87;;
30462;SDS011;17256;43.618;25.336;2023-01-04T11:59:31;73.10;;;37.63;;
30462;SDS011;17256;43.618;25.336;2023-01-04T12:02:21;66.80;;;38.60;;
30462;SDS011;17256;43.618;25.336;2023-01-04T12:04:58;57.20;;;32.93;;
30462;SDS011;17256;43.618;25.336;2023-01-04T12:09:59;61.43;;;37.87;;
30462;SDS011;17256;43.618;25.336;2023-01-04T12:27:58;59.60;;;35.80;;
30462;SDS011;17256;43.618;25.336;2023-01-04T12:41:03;65.83;;;36.10;;
30462;SDS011;17256;43.618;25.336;2023-01-04T12:45:17;75.63;;;40.53;;
30462;SDS011;17256;43.618;25.336;2023-01-04T13:59:52;95.50;;;63.97;;
30462;SDS011;17256;43.618;25.336;2023-01-04T14:02:20;107.03;;;70.87;;
30462;SDS011;17256;43.618;25.336;2023-01-04T14:04:47;118.20;;;85.20;;
30462;SDS011;17256;43.618;25.336;2023-01-04T14:07:20;92.67;;;61.93;;
30462;SDS011;17256;43.618;25.336;2023-01-04T15:06:54;102.43;;;70.77;;
30462;SDS011;17256;43.618;25.336;2023-01-04T15:09:25;84.30;;;52.40;;
30462;SDS011;17256;43.618;25.336;2023-01-04T15:11:52;77.47;;;47.83;;
30462;SDS011;17256;43.618;25.336;2023-01-04T15:14:18;82.87;;;48.67;;
30462;SDS011;17256;43.618;25.336;2023-01-04T15:16:44;81.43;;;47.87;;
30462;SDS011;17256;43.618;25.336;2023-01-04T15:19:10;92.83;;;56.23;;
30462;SDS011;17256;43.618;25.336;2023-01-04T15:21:35;125.30;;;79.87;;
30462;SDS011;17256;43.618;25.336;2023-01-04T15:24:01;160.47;;;94.40;;
30462;SDS011;17256;43.618;25.336;2023-01-04T15:26:27;126.93;;;72.47;;
30462;SDS011;17256;43.618;25.336;2023-01-04T15:28:53;98.07;;;55.60;;
30462;SDS011;17256;43.618;25.336;2023-01-04T15:31:18;130.83;;;83.90;;
30462;SDS011;17256;43.618;25.336;2023-01-04T15:33:45;135.33;;;82.23;;
30462;SDS011;17256;43.618;25.336;2023-01-04T15:36:12;144.37;;;83.93;;
30462;SDS011;17256;43.618;25.336;2023-01-04T15:38:40;158.83;;;96.23;;
30462;SDS011;17256;43.618;25.336;2023-01-04T15:41:07;209.33;;;115.27;;
30462;SDS011;17256;43.618;25.336;2023-01-04T15:43:56;219.03;;;123.30;;
30462;SDS011;17256;43.618;25.336;2023-01-04T15:46:21;229.10;;;133.67;;
30462;SDS011;17256;43.618;25.336;2023-01-04T15:48:47;171.83;;;106.30;;
30462;SDS011;17256;43.618;25.336;2023-01-04T15:51:13;148.87;;;95.47;;
30462;SDS011;17256;43.618;25.336;2023-01-04T15:53:39;158.37;;;106.90;;
30462;SDS011;17256;43.618;25.336;2023-01-04T15:56:09;111.37;;;73.47;;
30462;SDS011;17256;43.618;25.336;2023-01-04T15:58:36;110.53;;;73.07;;
30462;SDS011;17256;43.618;25.336;2023-01-04T16:01:10;111.50;;;78.43;;
30462;SDS011;17256;43.618;25.336;2023-01-04T16:03:43;112.00;;;77.60;;
30462;SDS011;17256;43.618;25.336;2023-01-04T16:06:14;106.97;;;72.73;;
30462;SDS011;17256;43.618;25.336;2023-01-04T16:08:41;104.37;;;79.43;;
30462;SDS011;17256;43.618;25.336;2023-01-04T16:11:11;106.50;;;84.43;;
30462;SDS011;17256;43.618;25.336;2023-01-04T16:13:37;235.97;;;129.47;;
30462;SDS011;17256;43.618;25.336;2023-01-04T16:16:06;126.00;;;86.27;;
30462;SDS011;17256;43.618;25.336;2023-01-04T16:18:34;505.10;;;262.13;;
30462;SDS011;17256;43.618;25.336;2023-01-04T16:21:05;198.50;;;112.57;;
30462;SDS011;17256;43.618;25.336;2023-01-04T16:23:33;161.33;;;94.90;;
30462;SDS011;17256;43.618;25.336;2023-01-04T16:26:07;132.13;;;84.30;;
30462;SDS011;17256;43.618;25.336;2023-01-04T16:28:37;118.30;;;79.07;;
30462;SDS011;17256;43.618;25.336;2023-01-04T16:31:04;113.50;;;74.60;;
30462;SDS011;17256;43.618;25.336;2023-01-04T16:33:31;113.90;;;74.37;;
30462;SDS011;17256;43.618;25.336;2023-01-04T16:36:07;111.43;;;75.50;;
30462;SDS011;17256;43.618;25.336;2023-01-04T16:38:36;130.77;;;79.60;;
30462;SDS011;17256;43.618;25.336;2023-01-04T16:41:03;111.73;;;73.67;;
30462;SDS011;17256;43.618;25.336;2023-01-04T16:43:31;124.03;;;80.47;;
30462;SDS011;17256;43.618;25.336;2023-01-04T16:46:13;150.50;;;100.40;;
30462;SDS011;17256;43.618;25.336;2023-01-04T16:48:40;139.10;;;90.17;;
30462;SDS011;17256;43.618;25.336;2023-01-04T16:51:06;143.67;;;96.57;;
30462;SDS011;17256;43.618;25.336;2023-01-04T16:53:33;147.70;;;97.03;;
30462;SDS011;17256;43.618;25.336;2023-01-04T16:56:03;195.90;;;115.67;;
30462;SDS011;17256;43.618;25.336;2023-01-04T16:58:33;133.07;;;84.87;;
30462;SDS011;17256;43.618;25.336;2023-01-04T17:01:13;133.50;;;81.43;;
30462;SDS011;17256;43.618;25.336;2023-01-04T17:03:40;129.90;;;81.07;;
30462;SDS011;17256;43.618;25.336;2023-01-04T17:06:11;142.40;;;95.83;;
30462;SDS011;17256;43.618;25.336;2023-01-04T17:08:39;138.63;;;93.83;;
30462;SDS011;17256;43.618;25.336;2023-01-04T17:11:06;157.20;;;99.00;;
30462;SDS011;17256;43.618;25.336;2023-01-04T17:13:40;203.30;;;125.13;;
30462;SDS011;17256;43.618;25.336;2023-01-04T17:16:08;180.13;;;112.50;;
30462;SDS011;17256;43.618;25.336;2023-01-04T17:18:35;185.83;;;114.33;;
30462;SDS011;17256;43.618;25.336;2023-01-04T17:21:03;157.57;;;97.60;;
30462;SDS011;17256;43.618;25.336;2023-01-04T17:23:33;136.40;;;84.07;;
30462;SDS011;17256;43.618;25.336;2023-01-04T17:26:02;129.93;;;84.97;;
30462;SDS011;17256;43.618;25.336;2023-01-04T17:28:29;187.57;;;122.77;;
30462;SDS011;17256;43.618;25.336;2023-01-04T17:30:55;200.80;;;128.03;;
30462;SDS011;17256;43.618;25.336;2023-01-04T17:33:21;198.83;;;125.87;;
30462;SDS011;17256;43.618;25.336;2023-01-04T17:35:47;226.67;;;137.00;;
30462;SDS011;17256;43.618;25.336;2023-01-04T17:38:15;275.33;;;158.47;;
30462;SDS011;17256;43.618;25.336;2023-01-04T17:40:41;288.67;;;168.80;;
30462;SDS011;17256;43.618;25.336;2023-01-04T17:43:08;272.60;;;166.27;;
30462;SDS011;17256;43.618;25.336;2023-01-04T17:45:34;277.20;;;159.57;;
30462;SDS011;17256;43.618;25.336;2023-01-04T17:48:00;250.30;;;143.93;;
30462;SDS011;17256;43.618;25.336;2023-01-04T17:50:25;248.63;;;147.53;;
30462;SDS011;17256;43.618;25.336;2023-01-04T17:52:51;248.13;;;148.60;;
30462;SDS011;17256;43.618;25.336;2023-01-04T17:55:18;242.67;;;146.20;;
30462;SDS011;17256;43.618;25.336;2023-01-04T17:57:44;219.07;;;138.67;;
30462;SDS011;17256;43.618;25.336;2023-01-04T18:00:11;227.87;;;142.53;;
30462;SDS011;17256;43.618;25.336;2023-01-04T18:02:39;205.63;;;136.30;;
30462;SDS011;17256;43.618;25.336;2023-01-04T18:05:08;187.50;;;124.87;;
30462;SDS011;17256;43.618;25.336;2023-01-04T18:07:34;158.00;;;109.33;;
30462;SDS011;17256;43.618;25.336;2023-01-04T18:10:00;135.03;;;93.77;;
30462;SDS011;17256;43.618;25.336;2023-01-04T18:12:26;107.73;;;72.67;;
30462;SDS011;17256;43.618;25.336;2023-01-04T18:14:54;114.17;;;80.23;;
30462;SDS011;17256;43.618;25.336;2023-01-04T18:17:20;136.17;;;79.53;;
30462;SDS011;17256;43.618;25.336;2023-01-04T18:19:47;85.27;;;54.07;;
30462;SDS011;17256;43.618;25.336;2023-01-04T18:22:13;102.30;;;56.00;;
30462;SDS011;17256;43.618;25.336;2023-01-04T18:24:40;95.53;;;56.20;;
30462;SDS011;17256;43.618;25.336;2023-01-04T18:27:06;120.03;;;62.13;;
30462;SDS011;17256;43.618;25.336;2023-01-04T18:29:33;120.87;;;64.60;;
30462;SDS011;17256;43.618;25.336;2023-01-04T18:31:59;124.13;;;66.73;;
30462;SDS011;17256;43.618;25.336;2023-01-04T18:34:25;104.00;;;58.57;;
30462;SDS011;17256;43.618;25.336;2023-01-04T18:36:50;117.40;;;65.77;;
30462;SDS011;17256;43.618;25.336;2023-01-04T18:39:16;102.37;;;58.53;;
30462;SDS011;17256;43.618;25.336;2023-01-04T18:41:42;104.97;;;57.93;;
30462;SDS011;17256;43.618;25.336;2023-01-04T18:44:10;122.40;;;75.23;;
30462;SDS011;17256;43.618;25.336;2023-01-04T18:46:36;126.20;;;69.57;;
30462;SDS011;17256;43.618;25.336;2023-01-04T18:49:02;129.50;;;70.47;;
30462;SDS011;17256;43.618;25.336;2023-01-04T18:51:29;108.63;;;60.47;;
30462;SDS011;17256;43.618;25.336;2023-01-04T18:53:54;117.30;;;64.63;;
30462;SDS011;17256;43.618;25.336;2023-01-04T18:56:20;120.83;;;68.57;;
30462;SDS011;17256;43.618;25.336;2023-01-04T18:58:47;130.87;;;76.50;;
30462;SDS011;17256;43.618;25.336;2023-01-04T19:01:14;116.30;;;70.23;;
30462;SDS011;17256;43.618;25.336;2023-01-04T19:03:43;108.47;;;66.03;;
30462;SDS011;17256;43.618;25.336;2023-01-04T19:06:19;98.57;;;58.90;;
30462;SDS011;17256;43.618;25.336;2023-01-04T19:08:46;104.07;;;55.17;;
30462;SDS011;17256;43.618;25.336;2023-01-04T19:11:12;87.53;;;53.67;;
30462;SDS011;17256;43.618;25.336;2023-01-04T19:13:38;104.93;;;58.07;;
30462;SDS011;17256;43.618;25.336;2023-01-04T19:16:08;103.00;;;59.10;;
30462;SDS011;17256;43.618;25.336;2023-01-04T19:18:36;105.63;;;58.50;;
30462;SDS011;17256;43.618;25.336;2023-01-04T19:21:02;93.33;;;53.73;;
30462;SDS011;17256;43.618;25.336;2023-01-04T19:23:28;90.53;;;51.87;;
30462;SDS011;17256;43.618;25.336;2023-01-04T19:25:54;87.23;;;51.23;;
30462;SDS011;17256;43.618;25.336;2023-01-04T19:28:20;101.00;;;52.37;;
30462;SDS011;17256;43.618;25.336;2023-01-04T19:30:45;94.17;;;50.90;;
30462;SDS011;17256;43.618;25.336;2023-01-04T19:33:11;94.23;;;51.17;;
30462;SDS011;17256;43.618;25.336;2023-01-04T19:35:42;91.60;;;50.13;;
30462;SDS011;17256;43.618;25.336;2023-01-04T19:38:10;89.03;;;52.07;;
30462;SDS011;17256;43.618;25.336;2023-01-04T19:40:36;92.30;;;45.80;;
30462;SDS011;17256;43.618;25.336;2023-01-04T19:43:02;81.60;;;45.57;;
30462;SDS011;17256;43.618;25.336;2023-01-04T19:45:28;90.93;;;44.77;;
30462;SDS011;17256;43.618;25.336;2023-01-04T19:47:54;83.50;;;43.33;;
30462;SDS011;17256;43.618;25.336;2023-01-04T19:50:20;100.83;;;50.00;;
30462;SDS011;17256;43.618;25.336;2023-01-04T19:52:46;90.50;;;47.93;;
30462;SDS011;17256;43.618;25.336;2023-01-04T19:55:11;99.20;;;51.60;;
30462;SDS011;17256;43.618;25.336;2023-01-04T19:57:37;96.67;;;51.00;;
30462;SDS011;17256;43.618;25.336;2023-01-04T20:00:03;106.37;;;58.50;;
30462;SDS011;17256;43.618;25.336;2023-01-04T20:02:30;105.27;;;58.63;;
30462;SDS011;17256;43.618;25.336;2023-01-04T20:04:56;106.57;;;62.00;;
30462;SDS011;17256;43.618;25.336;2023-01-04T20:07:22;108.07;;;62.33;;
30462;SDS011;17256;43.618;25.336;2023-01-04T20:09:48;111.03;;;63.20;;
30462;SDS011;17256;43.618;25.336;2023-01-04T20:12:16;107.53;;;63.27;;
30462;SDS011;17256;43.618;25.336;2023-01-04T20:14:43;105.27;;;64.07;;
30462;SDS011;17256;43.618;25.336;2023-01-04T20:17:11;95.67;;;60.33;;
30462;SDS011;17256;43.618;25.336;2023-01-04T20:19:39;88.87;;;52.00;;
30462;SDS011;17256;43.618;25.336;2023-01-04T20:22:05;83.07;;;50.73;;
30462;SDS011;17256;43.618;25.336;2023-01-04T20:24:30;98.17;;;57.17;;
30462;SDS011;17256;43.618;25.336;2023-01-04T20:26:57;103.93;;;57.97;;
30462;SDS011;17256;43.618;25.336;2023-01-04T20:29:23;96.03;;;52.40;;
30462;SDS011;17256;43.618;25.336;2023-01-04T20:31:50;102.07;;;50.93;;
30462;SDS011;17256;43.618;25.336;2023-01-04T20:34:16;126.67;;;71.87;;
30462;SDS011;17256;43.618;25.336;2023-01-04T20:36:44;133.27;;;78.90;;
30462;SDS011;17256;43.618;25.336;2023-01-04T20:39:10;115.97;;;64.83;;
30462;SDS011;17256;43.618;25.336;2023-01-04T20:41:37;114.07;;;58.67;;
30462;SDS011;17256;43.618;25.336;2023-01-04T20:44:25;94.93;;;52.53;;
30462;SDS011;17256;43.618;25.336;2023-01-04T20:46:50;101.47;;;50.03;;
30462;SDS011;17256;43.618;25.336;2023-01-04T20:49:16;90.43;;;47.03;;
30462;SDS011;17256;43.618;25.336;2023-01-04T20:51:41;83.00;;;43.47;;
30462;SDS011;17256;43.618;25.336;2023-01-04T20:54:08;90.33;;;48.67;;
30462;SDS011;17256;43.618;25.336;2023-01-04T20:56:35;86.47;;;45.93;;
30462;SDS011;17256;43.618;25.336;2023-01-04T20:59:03;94.13;;;50.70;;
30462;SDS011;17256;43.618;25.336;2023-01-04T21:01:29;96.40;;;50.97;;
30462;SDS011;17256;43.618;25.336;2023-01-04T21:03:54;107.37;;;53.00;;
30462;SDS011;17256;43.618;25.336;2023-01-04T21:06:21;94.80;;;49.47;;
30462;SDS011;17256;43.618;25.336;2023-01-04T21:08:48;95.97;;;47.80;;
30462;SDS011;17256;43.618;25.336;2023-01-04T21:11:16;98.33;;;45.93;;
30462;SDS011;17256;43.618;25.336;2023-01-04T21:13:42;87.83;;;45.43;;
30462;SDS011;17256;43.618;25.336;2023-01-04T21:16:08;81.27;;;41.07;;
30462;SDS011;17256;43.618;25.336;2023-01-04T21:18:34;78.63;;;39.17;;
30462;SDS011;17256;43.618;25.336;2023-01-04T21:21:05;84.10;;;39.43;;
30462;SDS011;17256;43.618;25.336;2023-01-04T21:23:32;88.30;;;42.67;;
30462;SDS011;17256;43.618;25.336;2023-01-04T21:26:10;95.03;;;48.37;;
30462;SDS011;17256;43.618;25.336;2023-01-04T21:28:39;83.40;;;45.73;;
30462;SDS011;17256;43.618;25.336;2023-01-04T21:31:11;114.37;;;53.90;;
30462;SDS011;17256;43.618;25.336;2023-01-04T21:33:46;98.97;;;50.23;;
30462;SDS011;17256;43.618;25.336;2023-01-04T21:36:13;86.63;;;46.67;;
30462;SDS011;17256;43.618;25.336;2023-01-04T21:38:43;90.53;;;46.50;;
30462;SDS011;17256;43.618;25.336;2023-01-04T21:41:12;85.13;;;43.80;;
30462;SDS011;17256;43.618;25.336;2023-01-04T21:43:39;92.03;;;45.00;;
30462;SDS011;17256;43.618;25.336;2023-01-04T21:46:10;86.80;;;44.37;;
30462;SDS011;17256;43.618;25.336;2023-01-04T21:48:39;81.23;;;42.67;;
30462;SDS011;17256;43.618;25.336;2023-01-04T21:51:05;84.97;;;44.07;;
30462;SDS011;17256;43.618;25.336;2023-01-04T21:53:31;78.17;;;45.03;;
30462;SDS011;17256;43.618;25.336;2023-01-04T21:55:59;83.13;;;44.73;;
30462;SDS011;17256;43.618;25.336;2023-01-04T21:58:26;67.13;;;40.70;;
30462;SDS011;17256;43.618;25.336;2023-01-04T22:00:52;72.20;;;41.37;;
30462;SDS011;17256;43.618;25.336;2023-01-04T22:03:18;72.97;;;38.93;;
30462;SDS011;17256;43.618;25.336;2023-01-04T22:05:44;67.10;;;38.17;;
30462;SDS011;17256;43.618;25.336;2023-01-04T22:08:10;69.00;;;37.03;;
30462;SDS011;17256;43.618;25.336;2023-01-04T22:10:35;60.70;;;35.70;;
30462;SDS011;17256;43.618;25.336;2023-01-04T22:13:01;65.00;;;34.93;;
30462;SDS011;17256;43.618;25.336;2023-01-04T22:15:27;65.60;;;35.70;;
30462;SDS011;17256;43.618;25.336;2023-01-04T22:17:52;61.33;;;34.80;;
30462;SDS011;17256;43.618;25.336;2023-01-04T22:20:19;64.20;;;35.80;;
30462;SDS011;17256;43.618;25.336;2023-01-04T22:22:44;75.40;;;39.53;;
30462;SDS011;17256;43.618;25.336;2023-01-04T22:25:10;76.07;;;39.53;;
30462;SDS011;17256;43.618;25.336;2023-01-04T22:27:35;83.17;;;39.77;;
30462;SDS011;17256;43.618;25.336;2023-01-04T22:30:02;77.17;;;41.60;;
30462;SDS011;17256;43.618;25.336;2023-01-04T22:32:29;68.80;;;36.00;;
30462;SDS011;17256;43.618;25.336;2023-01-04T22:34:54;65.03;;;36.80;;
30462;SDS011;17256;43.618;25.336;2023-01-04T22:37:20;75.07;;;36.30;;
30462;SDS011;17256;43.618;25.336;2023-01-04T22:39:45;68.20;;;37.90;;
30462;SDS011;17256;43.618;25.336;2023-01-04T22:42:11;66.30;;;35.33;;
30462;SDS011;17256;43.618;25.336;2023-01-04T22:44:38;59.83;;;32.73;;
30462;SDS011;17256;43.618;25.336;2023-01-04T22:47:03;62.10;;;32.97;;
30462;SDS011;17256;43.618;25.336;2023-01-04T22:49:29;67.60;;;34.33;;
30462;SDS011;17256;43.618;25.336;2023-01-04T22:51:56;67.07;;;35.30;;
30462;SDS011;17256;43.618;25.336;2023-01-04T22:54:22;68.00;;;36.00;;
30462;SDS011;17256;43.618;25.336;2023-01-04T22:56:48;61.53;;;34.93;;
30462;SDS011;17256;43.618;25.336;2023-01-04T22:59:14;65.83;;;34.77;;
30462;SDS011;17256;43.618;25.336;2023-01-04T23:01:40;66.27;;;36.13;;
30462;SDS011;17256;43.618;25.336;2023-01-04T23:04:05;72.30;;;37.70;;
30462;SDS011;17256;43.618;25.336;2023-01-04T23:06:31;74.20;;;36.57;;
30462;SDS011;17256;43.618;25.336;2023-01-04T23:09:02;65.13;;;36.03;;
30462;SDS011;17256;43.618;25.336;2023-01-04T23:11:30;62.00;;;35.07;;
30462;SDS011;17256;43.618;25.336;2023-01-04T23:13:56;57.13;;;34.30;;
30462;SDS011;17256;43.618;25.336;2023-01-04T23:16:22;56.00;;;32.50;;
30462;SDS011;17256;43.618;25.336;2023-01-04T23:18:48;53.80;;;30.97;;
30462;SDS011;17256;43.618;25.336;2023-01-04T23:21:14;61.30;;;32.67;;
30462;SDS011;17256;43.618;25.336;2023-01-04T23:23:40;59.33;;;31.97;;
30462;SDS011;17256;43.618;25.336;2023-01-04T23:26:08;55.00;;;32.47;;
30462;SDS011;17256;43.618;25.336;2023-01-04T23:28:37;58.97;;;30.97;;
30462;SDS011;17256;43.618;25.336;2023-01-04T23:31:04;55.47;;;31.20;;
30462;SDS011;17256;43.618;25.336;2023-01-04T23:33:31;63.83;;;34.73;;
30462;SDS011;17256;43.618;25.336;2023-01-04T23:36:13;57.53;;;33.57;;
30462;SDS011;17256;43.618;25.336;2023-01-04T23:38:41;62.10;;;33.27;;
30462;SDS011;17256;43.618;25.336;2023-01-04T23:41:09;66.57;;;33.60;;
30462;SDS011;17256;43.618;25.336;2023-01-04T23:43:36;55.77;;;30.13;;
30462;SDS011;17256;43.618;25.336;2023-01-04T23:46:06;53.87;;;31.20;;
30462;SDS011;17256;43.618;25.336;2023-01-04T23:48:37;61.17;;;32.20;;
30462;SDS011;17256;43.618;25.336;2023-01-04T23:51:03;49.50;;;29.03;;
30462;SDS011;17256;43.618;25.336;2023-01-04T23:53:29;50.03;;;29.87;;
30462;SDS011;17256;43.618;25.336;2023-01-04T23:56:00;49.60;;;30.63;;
30462;SDS011;17256;43.618;25.336;2023-01-04T23:58:28;53.60;;;30.27;;
